Aeroporto :
LOGIN :

Iscrizione | Disclaimer

   EN    FR    IT 

 










Sommario :    VFR   VFR Marginale   IFR   IFR Intensivo   IFR Molto Intensivo
Visibilità : 
Base nubi : 
>= 8 km
>= 3000ft
5 / 8 km
1000 / 3000 ft
1500m / 5 km
500 / 1000 ft
800 / 1500m
200 / 500 ft
< 800m
< 200 ft
Simboli :   Temporali  Nebbia  Neve Forte  Precipitazioni Forti  Vento > 20 kt
SIGMETs :   Varie  Temporali  Ghiacco  Turbolenza  Onda orograficha  Ceneri Vulcaniche






- Altitudine del aeroporto : 20 ft


EBFN - Koksijde

ULTIMO METAR :
  • 171225Z 33014KT 9999 FEW023TCU 09/03 Q1013 BLU BLU TEMPO GRN

METARs OBSOLETI :
  • 171155Z 33014KT 9999 FEW022TCU 09/02 Q1013 BLU BLU TEMPO GRN
  • 171125Z 32013KT 9999 FEW017TCU 09/04 Q1013 BLU BLU TEMPO GRN
  • 171055Z 30016KT 9999 FEW017TCU 09/04 Q1013 BLU BLU TEMPO GRN
  • 171025Z 32012G24KT 9999 FEW017TCU BKN020 08/03 Q1013 WHT BLU TEMPO GRN
  • 170955Z 31015KT 9999 FEW018TCU SCT020 09/03 Q1013 WHT BLU TEMPO GRN
  • 170925Z 31016KT 9999 FEW018TCU SCT020 08/04 Q1013 WHT BLU TEMPO WHT
  • 170855Z 31016KT 9999 FEW018CB SCT020TCU 08/04 Q1013 WHT BLU TEMPO WHT
  • 170836Z 31017KT 9999 FEW018CB SCT020TCU SCT090 08/04 Q1013 WHT BLU TEMPO WHT
  • 170816Z 30014KT 9999 FEW018CB FEW020TCU SCT090 09/04 Q1013 BLU BLU TEMPO WHT
  • 170755Z 30016KT 8000 -SHRAGS FEW018CB SCT090 08/04 Q1013 BLU BLU TEMPO WHT

TAF TAF EBFN
Valido dal 17 a 13 ore il 17 a 22 ore UTC


171141Z 1713/1722 31015KT 9999 FEW017 SCT022 BKN220
TEMPO 1713/1722 SCT020 BKN025
TEMPO 1713/1722 6000 -SHRA SCT015TCU SCT020
PROB40
TEMPO 1713/1722 31017G30KT 4000 SHRA -SHRAGR SCT010TCU SCT018
PROB30
TEMPO 1713/1715 31020G35KT 2000 -TSRA -TSRAGR SCT005 SCT012CB BKN020



MetMap, La meteo Aeronautica in un colpo d'occhio ! - Copyright ORBIFLY Dicembre 2007 - Disclaimer

ORBIFLY MET'MAP TEAM :

Programmazione e sviluppo : Alexandra Zaïnal
Concezione : Baudouin d'Aumeries
Supporto tecnico e logistico : Manuel Goepfert
Aiuto : Marc-Olivier Méhu
Aiuto per la traduzione : Arnaldo La Scala




FONTI E CREDITI :

   NOAA